sensor_id;sensor_type;location;lat;lon;timestamp;temperature;humidity
23507;DHT22;11930;53.076;18.250;2024-01-16T00:01:15;-1.80;99.90
23507;DHT22;11930;53.076;18.250;2024-01-16T00:03:45;-1.80;99.90
23507;DHT22;11930;53.076;18.250;2024-01-16T00:11:05;-1.90;99.90
23507;DHT22;11930;53.076;18.250;2024-01-16T00:13:32;-2.00;99.90
23507;DHT22;11930;53.076;18.250;2024-01-16T00:20:52;-2.20;99.90
23507;DHT22;11930;53.076;18.250;2024-01-16T00:23:18;-1.90;99.90
23507;DHT22;11930;53.076;18.250;2024-01-16T00:25:44;-1.90;99.90
23507;DHT22;11930;53.076;18.250;2024-01-16T00:28:10;-2.10;99.90
23507;DHT22;11930;53.076;18.250;2024-01-16T00:30:37;-2.00;99.90
23507;DHT22;11930;53.076;18.250;2024-01-16T00:33:03;-2.00;99.90
23507;DHT22;11930;53.076;18.250;2024-01-16T00:35:29;-2.00;99.90
23507;DHT22;11930;53.076;18.250;2024-01-16T00:40:22;-2.00;99.90
23507;DHT22;11930;53.076;18.250;2024-01-16T00:42:48;-2.10;99.90
23507;DHT22;11930;53.076;18.250;2024-01-16T00:45:15;-2.10;99.90
23507;DHT22;11930;53.076;18.250;2024-01-16T00:47:42;-2.20;99.90
23507;DHT22;11930;53.076;18.250;2024-01-16T00:50:09;-2.20;99.90
23507;DHT22;11930;53.076;18.250;2024-01-16T00:52:35;-2.30;99.90
23507;DHT22;11930;53.076;18.250;2024-01-16T00:55:01;-2.50;99.90
23507;DHT22;11930;53.076;18.250;2024-01-16T00:57:28;-2.50;99.90
23507;DHT22;11930;53.076;18.250;2024-01-16T00:59:54;-2.60;99.90
23507;DHT22;11930;53.076;18.250;2024-01-16T01:02:21;-2.70;99.90
23507;DHT22;11930;53.076;18.250;2024-01-16T01:04:47;-2.70;99.90
23507;DHT22;11930;53.076;18.250;2024-01-16T01:07:14;-2.80;99.90
23507;DHT22;11930;53.076;18.250;2024-01-16T01:12:08;-3.20;99.90
23507;DHT22;11930;53.076;18.250;2024-01-16T01:14:34;-3.20;99.90
23507;DHT22;11930;53.076;18.250;2024-01-16T01:19:27;-3.10;99.90
23507;DHT22;11930;53.076;18.250;2024-01-16T01:21:53;-3.10;99.90
23507;DHT22;11930;53.076;18.250;2024-01-16T01:24:19;-3.20;99.90
23507;DHT22;11930;53.076;18.250;2024-01-16T01:26:45;-3.30;99.90
23507;DHT22;11930;53.076;18.250;2024-01-16T01:29:12;-3.10;99.90
23507;DHT22;11930;53.076;18.250;2024-01-16T01:31:38;-3.30;99.90
23507;DHT22;11930;53.076;18.250;2024-01-16T01:34:04;-3.10;99.90
23507;DHT22;11930;53.076;18.250;2024-01-16T01:36:30;-3.30;99.90
23507;DHT22;11930;53.076;18.250;2024-01-16T01:38:57;-3.30;99.90
23507;DHT22;11930;53.076;18.250;2024-01-16T01:41:23;-3.30;99.90
23507;DHT22;11930;53.076;18.250;2024-01-16T01:43:49;-3.30;99.90
23507;DHT22;11930;53.076;18.250;2024-01-16T01:46:18;-3.10;99.90
23507;DHT22;11930;53.076;18.250;2024-01-16T01:48:46;-3.40;99.90
23507;DHT22;11930;53.076;18.250;2024-01-16T01:51:19;-3.40;99.90
23507;DHT22;11930;53.076;18.250;2024-01-16T01:53:48;-3.40;99.90
23507;DHT22;11930;53.076;18.250;2024-01-16T01:56:17;-3.50;99.90
23507;DHT22;11930;53.076;18.250;2024-01-16T01:58:47;-3.20;99.90
23507;DHT22;11930;53.076;18.250;2024-01-16T02:01:17;-6.40;99.90
23507;DHT22;11930;53.076;18.250;2024-01-16T02:03:45;-3.50;99.90
23507;DHT22;11930;53.076;18.250;2024-01-16T02:06:12;-3.30;99.90
23507;DHT22;11930;53.076;18.250;2024-01-16T02:08:42;-3.30;99.90
23507;DHT22;11930;53.076;18.250;2024-01-16T02:11:08;-4.20;99.90
23507;DHT22;11930;53.076;18.250;2024-01-16T02:13:36;-2.80;99.90
23507;DHT22;11930;53.076;18.250;2024-01-16T02:16:02;-4.10;99.90
23507;DHT22;11930;53.076;18.250;2024-01-16T02:18:29;-3.40;99.90
23507;DHT22;11930;53.076;18.250;2024-01-16T02:21:00;-3.50;99.90
23507;DHT22;11930;53.076;18.250;2024-01-16T02:23:27;-3.50;99.90
23507;DHT22;11930;53.076;18.250;2024-01-16T02:25:54;-3.50;99.90
23507;DHT22;11930;53.076;18.250;2024-01-16T02:28:20;-3.50;99.90
23507;DHT22;11930;53.076;18.250;2024-01-16T02:30:47;-3.50;99.90
23507;DHT22;11930;53.076;18.250;2024-01-16T02:33:13;-3.40;99.90
23507;DHT22;11930;53.076;18.250;2024-01-16T02:35:39;-3.50;99.90
23507;DHT22;11930;53.076;18.250;2024-01-16T02:38:05;-3.60;99.90
23507;DHT22;11930;53.076;18.250;2024-01-16T02:40:31;-3.60;99.90
23507;DHT22;11930;53.076;18.250;2024-01-16T02:42:58;-3.60;99.90
23507;DHT22;11930;53.076;18.250;2024-01-16T02:45:25;-3.50;99.90
23507;DHT22;11930;53.076;18.250;2024-01-16T02:50:18;-3.60;99.90
23507;DHT22;11930;53.076;18.250;2024-01-16T02:52:46;-3.40;99.90
23507;DHT22;11930;53.076;18.250;2024-01-16T02:55:12;-2.90;99.90
23507;DHT22;11930;53.076;18.250;2024-01-16T02:57:39;-3.40;99.90
23507;DHT22;11930;53.076;18.250;2024-01-16T03:00:06;-3.60;99.90
23507;DHT22;11930;53.076;18.250;2024-01-16T03:02:34;-3.60;99.90
23507;DHT22;11930;53.076;18.250;2024-01-16T03:05:01;-3.10;99.90
23507;DHT22;11930;53.076;18.250;2024-01-16T03:07:28;-3.60;99.90
23507;DHT22;11930;53.076;18.250;2024-01-16T03:09:54;-3.80;99.90
23507;DHT22;11930;53.076;18.250;2024-01-16T03:14:47;-3.50;99.90
23507;DHT22;11930;53.076;18.250;2024-01-16T03:17:13;-3.30;99.90
23507;DHT22;11930;53.076;18.250;2024-01-16T03:19:39;-3.50;99.90
23507;DHT22;11930;53.076;18.250;2024-01-16T03:22:05;-3.30;99.90
23507;DHT22;11930;53.076;18.250;2024-01-16T03:24:31;-3.60;99.90
23507;DHT22;11930;53.076;18.250;2024-01-16T03:29:24;-3.40;99.90
23507;DHT22;11930;53.076;18.250;2024-01-16T03:31:51;-3.60;99.90
23507;DHT22;11930;53.076;18.250;2024-01-16T03:34:17;-3.50;99.90
23507;DHT22;11930;53.076;18.250;2024-01-16T03:36:43;-3.60;99.90
23507;DHT22;11930;53.076;18.250;2024-01-16T03:39:09;-3.60;99.90
23507;DHT22;11930;53.076;18.250;2024-01-16T03:41:36;-3.60;99.90
23507;DHT22;11930;53.076;18.250;2024-01-16T03:44:02;-3.60;99.90
23507;DHT22;11930;53.076;18.250;2024-01-16T03:46:28;-3.70;99.90
23507;DHT22;11930;53.076;18.250;2024-01-16T03:51:21;-3.70;99.90
23507;DHT22;11930;53.076;18.250;2024-01-16T03:53:48;-3.70;99.90
23507;DHT22;11930;53.076;18.250;2024-01-16T03:56:15;-3.70;99.90
23507;DHT22;11930;53.076;18.250;2024-01-16T03:58:42;-3.60;99.90
23507;DHT22;11930;53.076;18.250;2024-01-16T04:03:35;-3.80;99.90
23507;DHT22;11930;53.076;18.250;2024-01-16T04:08:28;-4.00;99.90
23507;DHT22;11930;53.076;18.250;2024-01-16T04:10:54;-4.50;99.90
23507;DHT22;11930;53.076;18.250;2024-01-16T04:13:20;-3.90;99.90
23507;DHT22;11930;53.076;18.250;2024-01-16T04:15:46;-3.90;99.90
23507;DHT22;11930;53.076;18.250;2024-01-16T04:20:39;-4.00;99.90
23507;DHT22;11930;53.076;18.250;2024-01-16T04:25:32;-4.50;99.90
23507;DHT22;11930;53.076;18.250;2024-01-16T04:27:59;-4.20;99.90
23507;DHT22;11930;53.076;18.250;2024-01-16T04:30:25;-4.20;99.90
23507;DHT22;11930;53.076;18.250;2024-01-16T04:32:52;-4.30;99.90
23507;DHT22;11930;53.076;18.250;2024-01-16T04:35:18;-4.40;99.90
23507;DHT22;11930;53.076;18.250;2024-01-16T04:37:44;-4.40;99.90
23507;DHT22;11930;53.076;18.250;2024-01-16T04:40:10;-4.60;99.90
23507;DHT22;11930;53.076;18.250;2024-01-16T04:42:37;-4.60;99.90
23507;DHT22;11930;53.076;18.250;2024-01-16T04:45:03;-4.70;99.90
23507;DHT22;11930;53.076;18.250;2024-01-16T04:47:29;-4.70;99.90
23507;DHT22;11930;53.076;18.250;2024-01-16T04:52:23;-4.80;99.90
23507;DHT22;11930;53.076;18.250;2024-01-16T04:54:49;-4.80;99.90
23507;DHT22;11930;53.076;18.250;2024-01-16T04:57:16;-4.90;99.90
23507;DHT22;11930;53.076;18.250;2024-01-16T04:59:42;-4.80;99.90
23507;DHT22;11930;53.076;18.250;2024-01-16T05:02:10;-5.00;99.90
23507;DHT22;11930;53.076;18.250;2024-01-16T05:04:37;-5.00;99.90
23507;DHT22;11930;53.076;18.250;2024-01-16T05:07:04;-5.10;99.90
23507;DHT22;11930;53.076;18.250;2024-01-16T05:09:30;-5.10;99.90
23507;DHT22;11930;53.076;18.250;2024-01-16T05:11:57;-5.10;99.90
23507;DHT22;11930;53.076;18.250;2024-01-16T05:14:23;-5.20;99.90
23507;DHT22;11930;53.076;18.250;2024-01-16T05:16:52;-5.30;99.90
23507;DHT22;11930;53.076;18.250;2024-01-16T05:19:18;-5.30;99.90
23507;DHT22;11930;53.076;18.250;2024-01-16T05:21:45;-5.30;99.90
23507;DHT22;11930;53.076;18.250;2024-01-16T05:24:11;-5.30;99.90
23507;DHT22;11930;53.076;18.250;2024-01-16T05:26:37;-5.30;99.90
23507;DHT22;11930;53.076;18.250;2024-01-16T05:29:03;-5.30;99.90
23507;DHT22;11930;53.076;18.250;2024-01-16T05:31:30;-5.40;99.90
23507;DHT22;11930;53.076;18.250;2024-01-16T05:33:56;-5.50;99.90
23507;DHT22;11930;53.076;18.250;2024-01-16T05:36:22;-5.50;99.90
23507;DHT22;11930;53.076;18.250;2024-01-16T05:38:48;-5.20;99.90
23507;DHT22;11930;53.076;18.250;2024-01-16T05:41:16;-5.50;99.90
23507;DHT22;11930;53.076;18.250;2024-01-16T05:43:42;-5.50;99.90
23507;DHT22;11930;53.076;18.250;2024-01-16T05:46:08;-5.60;99.90
23507;DHT22;11930;53.076;18.250;2024-01-16T05:48:35;-5.60;99.90
23507;DHT22;11930;53.076;18.250;2024-01-16T05:51:01;-5.70;99.90
23507;DHT22;11930;53.076;18.250;2024-01-16T05:55:54;-5.80;99.90
23507;DHT22;11930;53.076;18.250;2024-01-16T05:58:20;-5.80;99.90
23507;DHT22;11930;53.076;18.250;2024-01-16T06:00:46;-5.80;99.90
23507;DHT22;11930;53.076;18.250;2024-01-16T06:03:13;-5.90;99.90
23507;DHT22;11930;53.076;18.250;2024-01-16T06:05:39;-6.00;99.90
23507;DHT22;11930;53.076;18.250;2024-01-16T06:08:06;-6.10;99.90
23507;DHT22;11930;53.076;18.250;2024-01-16T06:10:32;-6.00;99.90
23507;DHT22;11930;53.076;18.250;2024-01-16T06:12:58;-6.20;99.90
23507;DHT22;11930;53.076;18.250;2024-01-16T06:15:24;-6.10;99.90
23507;DHT22;11930;53.076;18.250;2024-01-16T06:17:50;-6.20;99.90
23507;DHT22;11930;53.076;18.250;2024-01-16T06:20:17;-6.10;99.90
23507;DHT22;11930;53.076;18.250;2024-01-16T06:22:43;-6.20;99.90
23507;DHT22;11930;53.076;18.250;2024-01-16T06:25:09;-6.30;99.90
23507;DHT22;11930;53.076;18.250;2024-01-16T06:27:35;-5.50;99.90
23507;DHT22;11930;53.076;18.250;2024-01-16T06:30:01;-6.30;99.90
23507;DHT22;11930;53.076;18.250;2024-01-16T06:32:29;-6.40;99.90
23507;DHT22;11930;53.076;18.250;2024-01-16T06:34:56;-6.40;99.90
23507;DHT22;11930;53.076;18.250;2024-01-16T06:37:22;-6.50;99.90
23507;DHT22;11930;53.076;18.250;2024-01-16T06:39:48;-6.50;99.90
23507;DHT22;11930;53.076;18.250;2024-01-16T06:42:14;-6.50;99.90
23507;DHT22;11930;53.076;18.250;2024-01-16T06:44:41;-6.60;99.90
23507;DHT22;11930;53.076;18.250;2024-01-16T06:47:07;-6.60;99.90
23507;DHT22;11930;53.076;18.250;2024-01-16T06:49:33;-6.70;99.90
23507;DHT22;11930;53.076;18.250;2024-01-16T06:52:00;-6.70;99.90
23507;DHT22;11930;53.076;18.250;2024-01-16T06:54:26;-6.80;99.90
23507;DHT22;11930;53.076;18.250;2024-01-16T06:56:52;-6.80;99.90
23507;DHT22;11930;53.076;18.250;2024-01-16T06:59:18;-6.80;99.90
23507;DHT22;11930;53.076;18.250;2024-01-16T07:01:45;-6.80;99.90
23507;DHT22;11930;53.076;18.250;2024-01-16T07:04:11;-6.80;99.90
23507;DHT22;11930;53.076;18.250;2024-01-16T07:06:40;-6.70;99.90
23507;DHT22;11930;53.076;18.250;2024-01-16T07:09:06;-6.70;99.90
23507;DHT22;11930;53.076;18.250;2024-01-16T07:11:36;-6.70;99.90
23507;DHT22;11930;53.076;18.250;2024-01-16T07:14:03;-6.60;99.90
23507;DHT22;11930;53.076;18.250;2024-01-16T07:16:29;-6.70;99.90
23507;DHT22;11930;53.076;18.250;2024-01-16T07:18:56;-6.60;99.90
23507;DHT22;11930;53.076;18.250;2024-01-16T07:21:22;-6.60;99.90
23507;DHT22;11930;53.076;18.250;2024-01-16T07:23:48;-6.50;99.90
23507;DHT22;11930;53.076;18.250;2024-01-16T07:26:14;-6.50;99.90
23507;DHT22;11930;53.076;18.250;2024-01-16T07:28:42;-6.50;99.90
23507;DHT22;11930;53.076;18.250;2024-01-16T07:31:09;-6.50;99.90
23507;DHT22;11930;53.076;18.250;2024-01-16T07:33:35;-6.50;99.90
23507;DHT22;11930;53.076;18.250;2024-01-16T07:36:02;-6.30;99.90
23507;DHT22;11930;53.076;18.250;2024-01-16T07:38:29;-6.40;99.90
23507;DHT22;11930;53.076;18.250;2024-01-16T07:40:55;-6.40;99.90
23507;DHT22;11930;53.076;18.250;2024-01-16T07:43:22;-6.30;99.90
23507;DHT22;11930;53.076;18.250;2024-01-16T07:45:49;-6.30;99.90
23507;DHT22;11930;53.076;18.250;2024-01-16T07:48:15;-6.10;99.90
23507;DHT22;11930;53.076;18.250;2024-01-16T07:50:41;-6.10;99.90
23507;DHT22;11930;53.076;18.250;2024-01-16T07:53:07;-6.00;99.90
23507;DHT22;11930;53.076;18.250;2024-01-16T07:58:00;-5.90;99.90
23507;DHT22;11930;53.076;18.250;2024-01-16T08:05:22;-5.60;99.90
23507;DHT22;11930;53.076;18.250;2024-01-16T08:07:51;-5.40;99.90
23507;DHT22;11930;53.076;18.250;2024-01-16T08:12:44;-4.80;99.90
23507;DHT22;11930;53.076;18.250;2024-01-16T08:15:10;-4.40;99.90
23507;DHT22;11930;53.076;18.250;2024-01-16T08:17:36;-4.20;99.90
23507;DHT22;11930;53.076;18.250;2024-01-16T08:20:03;-3.80;99.90
23507;DHT22;11930;53.076;18.250;2024-01-16T08:22:29;-3.50;99.90
23507;DHT22;11930;53.076;18.250;2024-01-16T08:24:55;-2.80;99.90
23507;DHT22;11930;53.076;18.250;2024-01-16T08:27:21;-3.10;99.90
23507;DHT22;11930;53.076;18.250;2024-01-16T08:29:47;-2.90;99.90
23507;DHT22;11930;53.076;18.250;2024-01-16T08:32:16;-2.60;99.90
23507;DHT22;11930;53.076;18.250;2024-01-16T08:34:43;-2.20;99.90
23507;DHT22;11930;53.076;18.250;2024-01-16T08:37:09;-1.80;99.90
23507;DHT22;11930;53.076;18.250;2024-01-16T08:39:35;-1.30;99.90
23507;DHT22;11930;53.076;18.250;2024-01-16T08:44:29;-0.30;99.90
23507;DHT22;11930;53.076;18.250;2024-01-16T08:49:23;0.80;99.90
23507;DHT22;11930;53.076;18.250;2024-01-16T08:51:49;1.30;99.90
23507;DHT22;11930;53.076;18.250;2024-01-16T08:54:16;1.70;99.90
23507;DHT22;11930;53.076;18.250;2024-01-16T08:56:42;2.00;98.70
23507;DHT22;11930;53.076;18.250;2024-01-16T08:59:08;2.30;95.50
23507;DHT22;11930;53.076;18.250;2024-01-16T09:04:03;2.70;93.30
23507;DHT22;11930;53.076;18.250;2024-01-16T09:06:29;2.90;92.80
23507;DHT22;11930;53.076;18.250;2024-01-16T09:08:56;3.20;91.80
23507;DHT22;11930;53.076;18.250;2024-01-16T09:11:22;3.50;91.40
23507;DHT22;11930;53.076;18.250;2024-01-16T09:13:48;3.80;90.40
23507;DHT22;11930;53.076;18.250;2024-01-16T09:16:14;4.10;87.60
23507;DHT22;11930;53.076;18.250;2024-01-16T09:18:41;4.50;84.60
23507;DHT22;11930;53.076;18.250;2024-01-16T09:21:07;4.70;82.10
23507;DHT22;11930;53.076;18.250;2024-01-16T09:23:33;5.00;81.60
23507;DHT22;11930;53.076;18.250;2024-01-16T09:25:59;5.30;76.30
23507;DHT22;11930;53.076;18.250;2024-01-16T09:28:25;5.40;73.90
23507;DHT22;11930;53.076;18.250;2024-01-16T09:30:54;5.50;72.60
23507;DHT22;11930;53.076;18.250;2024-01-16T09:33:23;5.60;71.60
23507;DHT22;11930;53.076;18.250;2024-01-16T09:35:51;5.60;70.50
23507;DHT22;11930;53.076;18.250;2024-01-16T09:38:18;5.70;69.40
23507;DHT22;11930;53.076;18.250;2024-01-16T09:40:44;5.90;68.90
23507;DHT22;11930;53.076;18.250;2024-01-16T09:43:11;6.00;65.80
23507;DHT22;11930;53.076;18.250;2024-01-16T09:45:38;5.80;64.40
23507;DHT22;11930;53.076;18.250;2024-01-16T09:48:08;5.50;65.00
23507;DHT22;11930;53.076;18.250;2024-01-16T09:50:35;5.40;66.00
23507;DHT22;11930;53.076;18.250;2024-01-16T09:53:01;5.40;66.90
23507;DHT22;11930;53.076;18.250;2024-01-16T09:55:28;5.50;66.60
23507;DHT22;11930;53.076;18.250;2024-01-16T09:57:55;5.50;64.50
23507;DHT22;11930;53.076;18.250;2024-01-16T10:00:22;5.40;64.40
23507;DHT22;11930;53.076;18.250;2024-01-16T10:02:50;5.10;64.90
23507;DHT22;11930;53.076;18.250;2024-01-16T10:05:16;4.60;66.20
23507;DHT22;11930;53.076;18.250;2024-01-16T10:07:43;4.30;65.10
23507;DHT22;11930;53.076;18.250;2024-01-16T10:10:12;3.80;66.50
23507;DHT22;11930;53.076;18.250;2024-01-16T10:12:39;2.90;68.80
23507;DHT22;11930;53.076;18.250;2024-01-16T10:15:06;2.80;69.40
23507;DHT22;11930;53.076;18.250;2024-01-16T10:17:40;2.10;71.20
23507;DHT22;11930;53.076;18.250;2024-01-16T10:20:09;2.10;71.90
23507;DHT22;11930;53.076;18.250;2024-01-16T10:22:40;1.90;73.40
23507;DHT22;11930;53.076;18.250;2024-01-16T10:25:10;1.80;75.10
23507;DHT22;11930;53.076;18.250;2024-01-16T10:30:12;1.60;75.40
23507;DHT22;11930;53.076;18.250;2024-01-16T10:32:41;1.70;76.40
23507;DHT22;11930;53.076;18.250;2024-01-16T10:35:09;1.70;76.90
23507;DHT22;11930;53.076;18.250;2024-01-16T10:37:55;1.80;77.40
23507;DHT22;11930;53.076;18.250;2024-01-16T10:40:24;1.90;77.30
23507;DHT22;11930;53.076;18.250;2024-01-16T10:43:00;1.90;76.50
23507;DHT22;11930;53.076;18.250;2024-01-16T10:45:27;1.80;76.70
23507;DHT22;11930;53.076;18.250;2024-01-16T10:48:03;1.70;77.90
23507;DHT22;11930;53.076;18.250;2024-01-16T10:50:31;1.40;78.60
23507;DHT22;11930;53.076;18.250;2024-01-16T10:53:00;1.10;79.50
23507;DHT22;11930;53.076;18.250;2024-01-16T10:55:29;0.90;81.20
23507;DHT22;11930;53.076;18.250;2024-01-16T10:57:58;0.70;82.30
23507;DHT22;11930;53.076;18.250;2024-01-16T11:00:27;0.50;83.40
23507;DHT22;11930;53.076;18.250;2024-01-16T11:03:01;0.20;83.40
23507;DHT22;11930;53.076;18.250;2024-01-16T11:05:31;0.20;84.90
23507;DHT22;11930;53.076;18.250;2024-01-16T11:07:59;0.00;85.70
23507;DHT22;11930;53.076;18.250;2024-01-16T11:10:31;-0.10;87.20
23507;DHT22;11930;53.076;18.250;2024-01-16T11:13:01;-0.40;88.90
23507;DHT22;11930;53.076;18.250;2024-01-16T11:15:28;-0.30;89.10
23507;DHT22;11930;53.076;18.250;2024-01-16T11:17:55;-0.30;89.10
23507;DHT22;11930;53.076;18.250;2024-01-16T11:20:23;-0.40;89.40
23507;DHT22;11930;53.076;18.250;2024-01-16T11:22:50;-0.40;90.10
23507;DHT22;11930;53.076;18.250;2024-01-16T11:25:17;-0.50;90.10
23507;DHT22;11930;53.076;18.250;2024-01-16T11:27:46;-0.60;90.50
23507;DHT22;11930;53.076;18.250;2024-01-16T11:30:30;-0.60;90.90
23507;DHT22;11930;53.076;18.250;2024-01-16T11:32:58;-0.70;91.20
23507;DHT22;11930;53.076;18.250;2024-01-16T11:35:37;-0.70;91.50
23507;DHT22;11930;53.076;18.250;2024-01-16T11:38:14;-0.80;91.80
23507;DHT22;11930;53.076;18.250;2024-01-16T11:40:42;-0.80;92.10
23507;DHT22;11930;53.076;18.250;2024-01-16T11:46:08;-1.00;92.40
23507;DHT22;11930;53.076;18.250;2024-01-16T11:48:35;-1.00;92.60
23507;DHT22;11930;53.076;18.250;2024-01-16T11:51:23;-1.00;92.90
23507;DHT22;11930;53.076;18.250;2024-01-16T11:53:50;-1.10;92.80
23507;DHT22;11930;53.076;18.250;2024-01-16T12:01:18;-1.00;93.30
23507;DHT22;11930;53.076;18.250;2024-01-16T12:04:06;-1.10;93.30
23507;DHT22;11930;53.076;18.250;2024-01-16T12:06:34;-1.10;92.90
23507;DHT22;11930;53.076;18.250;2024-01-16T12:09:14;-1.20;92.50
23507;DHT22;11930;53.076;18.250;2024-01-16T12:11:40;-1.20;92.00
23507;DHT22;11930;53.076;18.250;2024-01-16T12:14:09;-1.30;91.90
23507;DHT22;11930;53.076;18.250;2024-01-16T12:16:36;-1.40;91.80
23507;DHT22;11930;53.076;18.250;2024-01-16T12:19:09;-1.50;92.20
23507;DHT22;11930;53.076;18.250;2024-01-16T12:21:39;-1.50;92.50
23507;DHT22;11930;53.076;18.250;2024-01-16T12:24:06;-1.50;92.90
23507;DHT22;11930;53.076;18.250;2024-01-16T12:26:32;-1.80;92.80
23507;DHT22;11930;53.076;18.250;2024-01-16T12:36:19;-1.70;93.20
23507;DHT22;11930;53.076;18.250;2024-01-16T12:38:53;-1.90;93.40
23507;DHT22;11930;53.076;18.250;2024-01-16T12:41:19;-1.80;93.30
23507;DHT22;11930;53.076;18.250;2024-01-16T12:43:50;-1.80;93.30
23507;DHT22;11930;53.076;18.250;2024-01-16T12:46:16;-1.80;93.40
23507;DHT22;11930;53.076;18.250;2024-01-16T12:48:45;-1.80;93.30
23507;DHT22;11930;53.076;18.250;2024-01-16T12:51:20;-1.80;93.50
23507;DHT22;11930;53.076;18.250;2024-01-16T12:53:50;-1.70;93.30
23507;DHT22;11930;53.076;18.250;2024-01-16T12:56:20;-1.70;93.50
23507;DHT22;11930;53.076;18.250;2024-01-16T12:58:47;-1.70;93.60
23507;DHT22;11930;53.076;18.250;2024-01-16T13:01:26;-1.60;93.50
23507;DHT22;11930;53.076;18.250;2024-01-16T13:03:52;-1.60;93.50
23507;DHT22;11930;53.076;18.250;2024-01-16T13:06:20;-1.70;93.20
23507;DHT22;11930;53.076;18.250;2024-01-16T13:08:47;-1.50;92.70
23507;DHT22;11930;53.076;18.250;2024-01-16T13:11:14;-1.50;93.00
23507;DHT22;11930;53.076;18.250;2024-01-16T13:13:46;-1.50;92.90
23507;DHT22;11930;53.076;18.250;2024-01-16T13:16:15;-1.50;93.30
23507;DHT22;11930;53.076;18.250;2024-01-16T13:18:42;-1.50;93.50
23507;DHT22;11930;53.076;18.250;2024-01-16T13:21:08;-1.50;93.90
23507;DHT22;11930;53.076;18.250;2024-01-16T13:23:35;-1.60;93.30
23507;DHT22;11930;53.076;18.250;2024-01-16T13:26:02;-1.60;93.70
23507;DHT22;11930;53.076;18.250;2024-01-16T13:28:31;-1.70;93.10
23507;DHT22;11930;53.076;18.250;2024-01-16T13:30:57;-1.70;93.40
23507;DHT22;11930;53.076;18.250;2024-01-16T13:33:24;-1.80;93.10
23507;DHT22;11930;53.076;18.250;2024-01-16T13:35:53;-1.80;93.40
23507;DHT22;11930;53.076;18.250;2024-01-16T13:38:23;-1.50;94.30
23507;DHT22;11930;53.076;18.250;2024-01-16T13:45:43;-2.20;94.30
23507;DHT22;11930;53.076;18.250;2024-01-16T13:48:09;-2.10;93.20
23507;DHT22;11930;53.076;18.250;2024-01-16T13:50:35;-2.10;94.80
23507;DHT22;11930;53.076;18.250;2024-01-16T13:53:02;-2.60;94.80
23507;DHT22;11930;53.076;18.250;2024-01-16T13:55:29;-2.70;95.00
23507;DHT22;11930;53.076;18.250;2024-01-16T13:57:58;-3.10;95.10
23507;DHT22;11930;53.076;18.250;2024-01-16T14:00:24;-2.50;95.60
23507;DHT22;11930;53.076;18.250;2024-01-16T14:02:50;-2.70;94.40
23507;DHT22;11930;53.076;18.250;2024-01-16T14:05:18;-2.70;94.90
23507;DHT22;11930;53.076;18.250;2024-01-16T14:07:46;-2.70;95.60
23507;DHT22;11930;53.076;18.250;2024-01-16T14:10:17;-3.30;95.50
23507;DHT22;11930;53.076;18.250;2024-01-16T14:12:44;-2.90;95.70
23507;DHT22;11930;53.076;18.250;2024-01-16T14:15:12;-2.70;96.40
23507;DHT22;11930;53.076;18.250;2024-01-16T14:17:59;-3.20;96.30
23507;DHT22;11930;53.076;18.250;2024-01-16T14:20:25;-3.10;96.60
23507;DHT22;11930;53.076;18.250;2024-01-16T14:22:53;-3.30;96.90
23507;DHT22;11930;53.076;18.250;2024-01-16T14:25:21;-3.40;97.10
23507;DHT22;11930;53.076;18.250;2024-01-16T14:27:58;-3.30;97.20
23507;DHT22;11930;53.076;18.250;2024-01-16T14:30:27;-3.20;97.60
23507;DHT22;11930;53.076;18.250;2024-01-16T14:32:54;-3.60;98.40
23507;DHT22;11930;53.076;18.250;2024-01-16T14:35:20;-3.40;98.20
23507;DHT22;11930;53.076;18.250;2024-01-16T14:37:47;-3.40;98.60
23507;DHT22;11930;53.076;18.250;2024-01-16T14:40:13;-3.50;99.10
23507;DHT22;11930;53.076;18.250;2024-01-16T14:42:42;-3.50;99.50
23507;DHT22;11930;53.076;18.250;2024-01-16T14:45:09;-3.80;99.90
23507;DHT22;11930;53.076;18.250;2024-01-16T14:47:38;-3.70;99.90
23507;DHT22;11930;53.076;18.250;2024-01-16T14:50:05;-4.00;99.90
23507;DHT22;11930;53.076;18.250;2024-01-16T14:52:31;-3.70;99.90
23507;DHT22;11930;53.076;18.250;2024-01-16T14:55:03;-4.60;99.90
23507;DHT22;11930;53.076;18.250;2024-01-16T14:57:33;-3.80;99.90
23507;DHT22;11930;53.076;18.250;2024-01-16T15:00:11;-3.90;99.90
23507;DHT22;11930;53.076;18.250;2024-01-16T15:02:49;-4.10;99.90
23507;DHT22;11930;53.076;18.250;2024-01-16T15:05:16;-3.40;99.90
23507;DHT22;11930;53.076;18.250;2024-01-16T15:07:43;-3.90;99.90
23507;DHT22;11930;53.076;18.250;2024-01-16T15:10:10;-4.30;99.90
23507;DHT22;11930;53.076;18.250;2024-01-16T15:12:44;-4.60;99.90
23507;DHT22;11930;53.076;18.250;2024-01-16T15:15:11;-4.40;99.90
23507;DHT22;11930;53.076;18.250;2024-01-16T15:17:40;-4.40;99.90
23507;DHT22;11930;53.076;18.250;2024-01-16T15:20:07;-4.60;99.90
23507;DHT22;11930;53.076;18.250;2024-01-16T15:22:39;-4.50;99.90
23507;DHT22;11930;53.076;18.250;2024-01-16T15:25:06;-5.00;99.90
23507;DHT22;11930;53.076;18.250;2024-01-16T15:27:33;-4.60;99.90
23507;DHT22;11930;53.076;18.250;2024-01-16T15:29:59;-4.70;99.90
23507;DHT22;11930;53.076;18.250;2024-01-16T15:37:19;-4.50;99.90
23507;DHT22;11930;53.076;18.250;2024-01-16T15:39:45;-4.80;99.90
23507;DHT22;11930;53.076;18.250;2024-01-16T15:44:38;-4.80;99.90
23507;DHT22;11930;53.076;18.250;2024-01-16T15:49:32;-4.80;99.90
23507;DHT22;11930;53.076;18.250;2024-01-16T15:51:58;-4.70;99.90
23507;DHT22;11930;53.076;18.250;2024-01-16T15:54:31;-5.70;99.90
23507;DHT22;11930;53.076;18.250;2024-01-16T15:56:58;-4.20;99.90
23507;DHT22;11930;53.076;18.250;2024-01-16T16:06:45;-5.30;99.90
23507;DHT22;11930;53.076;18.250;2024-01-16T16:11:39;-5.50;99.90
23507;DHT22;11930;53.076;18.250;2024-01-16T16:14:12;-5.70;99.90
23507;DHT22;11930;53.076;18.250;2024-01-16T16:16:52;-4.90;99.90
23507;DHT22;11930;53.076;18.250;2024-01-16T16:19:34;-5.70;99.90
23507;DHT22;11930;53.076;18.250;2024-01-16T16:22:04;-5.10;99.90
23507;DHT22;11930;53.076;18.250;2024-01-16T16:24:34;-5.90;99.90
23507;DHT22;11930;53.076;18.250;2024-01-16T16:27:01;-6.20;99.90
23507;DHT22;11930;53.076;18.250;2024-01-16T16:29:32;-6.10;99.90
23507;DHT22;11930;53.076;18.250;2024-01-16T16:31:58;-6.10;99.90
23507;DHT22;11930;53.076;18.250;2024-01-16T16:34:25;-6.10;99.90
23507;DHT22;11930;53.076;18.250;2024-01-16T16:36:51;-6.20;99.90
23507;DHT22;11930;53.076;18.250;2024-01-16T16:41:44;-6.80;99.90
23507;DHT22;11930;53.076;18.250;2024-01-16T16:44:10;-6.20;99.90
23507;DHT22;11930;53.076;18.250;2024-01-16T16:46:36;-6.20;99.90
23507;DHT22;11930;53.076;18.250;2024-01-16T16:49:03;-6.40;99.90
23507;DHT22;11930;53.076;18.250;2024-01-16T16:51:29;-6.40;99.90
23507;DHT22;11930;53.076;18.250;2024-01-16T16:53:56;-6.40;99.90
23507;DHT22;11930;53.076;18.250;2024-01-16T16:56:23;-6.50;99.90
23507;DHT22;11930;53.076;18.250;2024-01-16T16:58:50;-6.70;99.90
23507;DHT22;11930;53.076;18.250;2024-01-16T17:01:19;-6.50;99.90
23507;DHT22;11930;53.076;18.250;2024-01-16T17:03:46;-6.50;99.90